createdAt,value
2019-01-18T00:00:40.626Z,20.10
2019-01-18T00:03:09.312Z,20.07
2019-01-18T00:05:37.671Z,21.30
2019-01-18T00:08:06.043Z,18.37
2019-01-18T00:10:34.407Z,17.20
2019-01-18T00:13:02.706Z,15.47
2019-01-18T00:15:31.103Z,25.20
2019-01-18T00:17:59.455Z,32.97
2019-01-18T00:20:27.761Z,33.53
2019-01-18T00:22:56.508Z,27.50
2019-01-18T00:25:24.874Z,26.30
2019-01-18T00:27:53.270Z,20.00
2019-01-18T00:30:22.671Z,28.43
2019-01-18T00:32:51.035Z,17.20
2019-01-18T00:35:19.412Z,25.93
2019-01-18T00:37:47.783Z,21.60
2019-01-18T00:40:18.933Z,23.83
2019-01-18T00:42:47.300Z,24.37
2019-01-18T00:45:19.891Z,29.87
2019-01-18T00:47:48.266Z,37.90
2019-01-18T00:50:19.197Z,27.90
2019-01-18T00:52:47.588Z,32.47
2019-01-18T00:55:15.951Z,34.83
2019-01-18T00:57:44.852Z,37.10
2019-01-18T01:00:24.689Z,32.80
2019-01-18T01:02:53.043Z,31.17
2019-01-18T01:05:21.364Z,33.97
2019-01-18T01:07:49.733Z,25.03
2019-01-18T01:10:18.117Z,27.13
2019-01-18T01:12:46.476Z,31.90
2019-01-18T01:15:17.744Z,34.07
2019-01-18T01:17:46.269Z,26.77
2019-01-18T01:20:17.048Z,29.50
2019-01-18T01:22:45.442Z,36.00
2019-01-18T01:25:13.821Z,28.67
2019-01-18T01:27:42.243Z,26.10
2019-01-18T01:30:16.188Z,43.63
2019-01-18T01:32:44.475Z,44.07
2019-01-18T01:35:13.073Z,33.97
2019-01-18T01:37:41.421Z,22.23
2019-01-18T01:40:12.852Z,30.90
2019-01-18T01:42:41.484Z,37.00
2019-01-18T01:45:10.714Z,32.20
2019-01-18T01:47:39.020Z,21.23
2019-01-18T01:50:10.652Z,26.73
2019-01-18T01:52:39.048Z,25.77
2019-01-18T01:55:08.377Z,31.67
2019-01-18T01:57:36.666Z,27.97
2019-01-18T02:00:11.370Z,31.27
2019-01-18T02:02:40.049Z,24.43
2019-01-18T02:05:08.371Z,30.37
2019-01-18T02:07:36.731Z,24.77
2019-01-18T02:10:08.265Z,47.43
2019-01-18T02:12:36.576Z,33.73
2019-01-18T02:15:08.076Z,28.00
2019-01-18T02:17:36.384Z,31.27
2019-01-18T02:20:07.938Z,36.50
2019-01-18T02:22:36.301Z,33.77
2019-01-18T02:25:05.757Z,51.60
2019-01-18T02:27:34.175Z,31.13
2019-01-18T02:30:02.491Z,36.97
2019-01-18T02:32:30.859Z,51.90
2019-01-18T02:34:59.183Z,35.03
2019-01-18T02:37:27.851Z,53.83
2019-01-18T02:39:56.226Z,37.57
2019-01-18T02:42:24.601Z,35.13
2019-01-18T02:44:52.963Z,32.80
2019-01-18T02:47:21.297Z,35.30
2019-01-18T02:49:49.645Z,30.83
2019-01-18T02:52:18.013Z,36.73
2019-01-18T02:54:46.393Z,35.90
2019-01-18T02:57:14.761Z,38.47
2019-01-18T02:59:43.157Z,34.93
2019-01-18T03:02:11.399Z,37.83
2019-01-18T03:04:39.756Z,33.27
2019-01-18T03:07:08.125Z,32.50
2019-01-18T03:09:36.437Z,42.77
2019-01-18T03:12:04.806Z,33.50
2019-01-18T03:14:33.488Z,41.90
2019-01-18T03:17:02.180Z,34.10
2019-01-18T03:19:30.828Z,37.63
2019-01-18T03:21:59.118Z,29.23
2019-01-18T03:24:27.522Z,35.13
2019-01-18T03:26:55.903Z,44.57
2019-01-18T03:29:24.275Z,31.70
2019-01-18T03:31:53.031Z,40.90
2019-01-18T03:34:21.417Z,44.67
2019-01-18T03:36:49.775Z,35.77
2019-01-18T03:39:18.060Z,29.07
2019-01-18T03:41:46.381Z,37.13
2019-01-18T03:44:14.991Z,33.00
2019-01-18T03:46:43.368Z,37.17
2019-01-18T03:49:11.750Z,36.37
2019-01-18T03:51:40.125Z,43.90
2019-01-18T03:54:08.526Z,34.37
2019-01-18T03:56:36.834Z,38.87
2019-01-18T03:59:05.128Z,39.90
2019-01-18T04:01:33.509Z,27.67
2019-01-18T04:04:01.876Z,25.87
2019-01-18T04:06:30.233Z,35.13
2019-01-18T04:08:58.546Z,32.40
2019-01-18T04:11:26.830Z,43.53
2019-01-18T04:13:55.702Z,28.67
2019-01-18T04:16:24.632Z,40.13
2019-01-18T04:18:53.019Z,36.50
2019-01-18T04:21:21.388Z,39.63
2019-01-18T04:23:50.027Z,28.10
2019-01-18T04:26:18.398Z,34.50
2019-01-18T04:28:46.701Z,36.67
2019-01-18T04:31:15.031Z,27.67
2019-01-18T04:33:43.385Z,47.30
2019-01-18T04:36:11.688Z,40.40
2019-01-18T04:38:40.076Z,36.20
2019-01-18T04:41:08.449Z,35.93
2019-01-18T04:43:36.821Z,36.40
2019-01-18T04:46:05.198Z,49.97
2019-01-18T04:48:33.579Z,31.33
2019-01-18T04:51:02.262Z,34.67
2019-01-18T04:53:30.627Z,40.50
2019-01-18T04:55:58.999Z,31.00
2019-01-18T04:58:27.293Z,32.70
2019-01-18T05:00:56.055Z,31.97
2019-01-18T05:03:24.343Z,27.93
2019-01-18T05:05:52.716Z,18.87
2019-01-18T05:08:21.499Z,21.07
2019-01-18T05:10:49.863Z,27.83
2019-01-18T05:13:18.253Z,36.27
2019-01-18T05:15:46.612Z,35.87
2019-01-18T05:18:14.892Z,37.60
2019-01-18T05:20:43.270Z,29.17
2019-01-18T05:23:11.638Z,48.77
2019-01-18T05:25:39.949Z,75.97
2019-01-18T05:28:08.580Z,48.83
2019-01-18T05:30:36.854Z,73.40
2019-01-18T05:33:05.289Z,41.73
2019-01-18T05:35:33.662Z,54.80
2019-01-18T05:38:02.041Z,89.50
2019-01-18T05:40:30.382Z,116.70
2019-01-18T05:42:59.038Z,37.07
2019-01-18T05:45:27.332Z,48.53
2019-01-18T05:47:55.658Z,39.30
2019-01-18T05:50:26.188Z,61.13
2019-01-18T05:52:54.566Z,47.13
2019-01-18T05:55:22.907Z,37.37
2019-01-18T05:57:51.269Z,41.00
2019-01-18T06:00:54.973Z,37.97
2019-01-18T06:03:17.700Z,42.27
2019-01-18T06:05:46.388Z,26.20
2019-01-18T06:08:14.774Z,36.80
2019-01-18T06:10:43.157Z,40.40
2019-01-18T06:13:11.534Z,30.03
2019-01-18T06:15:40.863Z,45.10
2019-01-18T06:18:09.179Z,28.10
2019-01-18T06:20:37.583Z,46.70
2019-01-18T06:23:05.948Z,34.03
2019-01-18T06:25:34.345Z,32.50
2019-01-18T06:28:02.702Z,49.53
2019-01-18T06:30:31.039Z,47.57
2019-01-18T06:32:59.429Z,46.73
2019-01-18T06:35:27.793Z,49.23
2019-01-18T06:37:56.199Z,50.80
2019-01-18T06:40:24.570Z,46.13
2019-01-18T06:42:52.949Z,49.83
2019-01-18T06:45:24.290Z,52.13
2019-01-18T06:47:52.659Z,49.87
2019-01-18T06:50:20.977Z,54.33
2019-01-18T06:52:49.346Z,45.50
2019-01-18T06:55:17.708Z,40.03
2019-01-18T06:57:46.079Z,38.90
2019-01-18T07:00:26.203Z,42.20
2019-01-18T07:02:54.666Z,52.70
2019-01-18T07:05:23.044Z,35.63
2019-01-18T07:07:51.408Z,46.47
2019-01-18T07:10:22.290Z,45.70
2019-01-18T07:12:50.614Z,45.13
2019-01-18T07:15:18.970Z,46.10
2019-01-18T07:17:47.311Z,42.27
2019-01-18T07:20:17.399Z,54.43
2019-01-18T07:22:45.828Z,40.57
2019-01-18T07:25:19.774Z,44.63
2019-01-18T07:27:48.151Z,42.10
2019-01-18T07:30:22.258Z,34.50
2019-01-18T07:32:50.658Z,40.90
2019-01-18T07:35:19.027Z,42.63
2019-01-18T07:37:47.318Z,41.40
2019-01-18T07:40:15.695Z,42.07
2019-01-18T07:42:44.061Z,44.30
2019-01-18T07:45:18.736Z,44.77
2019-01-18T07:47:47.103Z,47.80
2019-01-18T07:50:19.912Z,48.23
2019-01-18T07:52:45.521Z,35.67
2019-01-18T07:55:13.863Z,37.67
2019-01-18T07:57:42.222Z,41.57
2019-01-18T08:00:19.249Z,31.57
2019-01-18T08:02:47.611Z,54.57
2019-01-18T08:05:16.044Z,47.93
2019-01-18T08:07:44.551Z,53.40
2019-01-18T08:10:20.996Z,50.23
2019-01-18T08:12:49.320Z,42.23
2019-01-18T08:15:23.049Z,46.83
2019-01-18T08:17:51.626Z,38.17
2019-01-18T08:20:22.585Z,40.23
2019-01-18T08:22:50.971Z,46.10
2019-01-18T08:25:19.343Z,39.17
2019-01-18T08:27:47.740Z,39.00
2019-01-18T08:30:21.514Z,44.60
2019-01-18T08:32:49.845Z,52.30
2019-01-18T08:35:19.817Z,47.70
2019-01-18T08:37:48.182Z,38.83
2019-01-18T08:40:19.337Z,45.47
2019-01-18T08:42:47.632Z,47.53
2019-01-18T08:45:24.921Z,40.93
2019-01-18T08:47:53.293Z,38.20
2019-01-18T08:50:21.647Z,35.00
2019-01-18T08:52:50.034Z,41.13
2019-01-18T08:55:18.720Z,36.10
2019-01-18T08:57:47.126Z,36.60
2019-01-18T09:00:29.945Z,47.30
2019-01-18T09:02:58.310Z,55.37
2019-01-18T09:05:27.972Z,41.07
2019-01-18T09:07:56.267Z,59.17
2019-01-18T09:10:29.888Z,48.43
2019-01-18T09:12:58.252Z,47.23
2019-01-18T09:15:26.632Z,41.63
2019-01-18T09:17:55.035Z,41.73
2019-01-18T09:20:25.800Z,37.20
2019-01-18T09:22:54.112Z,39.33
2019-01-18T09:25:22.551Z,46.97
2019-01-18T09:27:50.922Z,46.23
2019-01-18T09:30:21.858Z,56.70
2019-01-18T09:32:50.442Z,53.87
2019-01-18T09:35:21.196Z,54.87
2019-01-18T09:37:49.520Z,46.13
2019-01-18T09:40:20.383Z,51.23
2019-01-18T09:42:48.671Z,45.43
2019-01-18T09:45:17.025Z,41.23
2019-01-18T09:47:45.416Z,37.87
2019-01-18T09:50:19.405Z,37.03
2019-01-18T09:52:47.855Z,38.13
2019-01-18T09:55:16.230Z,41.10
2019-01-18T09:57:44.561Z,34.50
2019-01-18T10:00:21.570Z,34.50
2019-01-18T10:02:49.884Z,34.43
2019-01-18T10:05:18.768Z,34.83
2019-01-18T10:07:47.133Z,28.87
2019-01-18T10:10:20.056Z,33.87
2019-01-18T10:12:49.189Z,27.67
2019-01-18T10:15:26.276Z,33.43
2019-01-18T10:18:00.521Z,31.03
2019-01-18T10:20:25.000Z,29.90
2019-01-18T10:22:53.404Z,24.53
2019-01-18T10:25:21.700Z,22.13
2019-01-18T10:27:50.068Z,20.67
2019-01-18T10:30:21.352Z,19.17
2019-01-18T10:32:49.720Z,22.77
2019-01-18T10:35:18.347Z,24.70
2019-01-18T10:37:46.700Z,24.80
2019-01-18T10:40:16.208Z,25.17
2019-01-18T10:42:44.984Z,22.40
2019-01-18T10:45:15.825Z,21.90
2019-01-18T10:47:44.461Z,27.37
2019-01-18T10:50:15.369Z,25.60
2019-01-18T10:52:44.113Z,27.93
2019-01-18T10:55:12.484Z,21.87
2019-01-18T10:57:40.781Z,22.97
2019-01-18T11:00:22.340Z,26.53
2019-01-18T11:02:51.848Z,23.40
2019-01-18T11:05:20.914Z,27.67
2019-01-18T11:07:49.352Z,22.07
2019-01-18T11:10:17.725Z,25.83
2019-01-18T11:12:46.171Z,26.10
2019-01-18T11:15:22.499Z,23.20
2019-01-18T11:17:50.816Z,29.83
2019-01-18T11:20:24.946Z,33.23
2019-01-18T11:22:54.784Z,27.67
2019-01-18T11:25:23.503Z,32.47
2019-01-18T11:27:51.882Z,28.17
2019-01-18T11:30:20.267Z,32.73
2019-01-18T11:32:48.572Z,38.43
2019-01-18T11:35:17.103Z,33.57
2019-01-18T11:37:45.441Z,24.77
2019-01-18T11:40:16.461Z,27.93
2019-01-18T11:42:44.843Z,31.17
2019-01-18T11:45:13.608Z,27.97
2019-01-18T11:47:41.963Z,31.03
2019-01-18T11:50:16.625Z,27.87
2019-01-18T11:52:44.980Z,29.87
2019-01-18T11:55:13.371Z,27.33
2019-01-18T11:57:41.731Z,30.17
2019-01-18T12:00:24.754Z,22.53
2019-01-18T12:02:53.083Z,28.30
2019-01-18T12:05:21.452Z,26.03
2019-01-18T12:07:49.842Z,33.17
2019-01-18T12:10:29.342Z,26.70
2019-01-18T12:12:57.824Z,26.67
2019-01-18T12:15:26.644Z,34.40
2019-01-18T12:17:55.017Z,25.03
2019-01-18T12:20:34.219Z,24.57
2019-01-18T12:23:02.570Z,27.03
2019-01-18T12:25:30.904Z,28.53
2019-01-18T12:27:59.305Z,26.53
2019-01-18T12:30:30.488Z,26.70
2019-01-18T12:32:58.849Z,21.87
2019-01-18T12:35:27.796Z,28.27
2019-01-18T12:37:56.139Z,27.43
2019-01-18T12:40:24.462Z,27.63
2019-01-18T12:42:52.873Z,18.93
2019-01-18T12:45:22.395Z,19.57
2019-01-18T12:47:50.760Z,25.03
2019-01-18T12:50:27.962Z,38.97
2019-01-18T12:52:56.318Z,29.47
2019-01-18T12:55:24.656Z,24.30
2019-01-18T12:57:52.952Z,25.13
2019-01-18T13:00:26.961Z,29.03
2019-01-18T13:02:55.592Z,23.97
2019-01-18T13:05:36.098Z,24.97
2019-01-18T13:08:04.829Z,26.93
2019-01-18T13:10:33.158Z,25.87
2019-01-18T13:13:01.693Z,30.80
2019-01-18T13:15:39.179Z,26.30
2019-01-18T13:18:07.521Z,29.13
2019-01-18T13:20:35.891Z,22.43
2019-01-18T13:23:04.159Z,26.47
2019-01-18T13:25:32.527Z,27.73
2019-01-18T13:28:00.906Z,38.83
2019-01-18T13:30:29.279Z,23.07
2019-01-18T13:32:57.597Z,30.50
2019-01-18T13:35:25.889Z,26.20
2019-01-18T13:37:54.261Z,32.43
2019-01-18T13:40:23.265Z,29.23
2019-01-18T13:42:51.670Z,32.80
2019-01-18T13:45:24.266Z,24.53
2019-01-18T13:47:50.409Z,35.57
2019-01-18T13:50:19.436Z,37.53
2019-01-18T13:52:48.727Z,37.67
2019-01-18T13:55:29.039Z,37.20
2019-01-18T13:57:57.430Z,39.63
2019-01-18T14:00:25.801Z,40.50
2019-01-18T14:02:54.157Z,51.87
2019-01-18T14:05:22.485Z,45.50
2019-01-18T14:07:53.391Z,46.97
2019-01-18T14:10:28.959Z,50.77
2019-01-18T14:12:57.363Z,58.90
2019-01-18T14:15:26.210Z,60.37
2019-01-18T14:17:54.542Z,65.10
2019-01-18T14:20:24.948Z,64.47
2019-01-18T14:22:53.315Z,61.20
2019-01-18T14:25:21.589Z,69.47
2019-01-18T14:27:49.953Z,64.90
2019-01-18T14:30:20.649Z,66.37
2019-01-18T14:32:55.152Z,82.23
2019-01-18T14:35:19.412Z,79.63
2019-01-18T14:37:47.725Z,60.70
2019-01-18T14:40:17.552Z,71.10
2019-01-18T14:42:46.959Z,62.53
2019-01-18T14:45:21.740Z,67.37
2019-01-18T14:47:50.480Z,66.93
2019-01-18T14:50:20.546Z,54.47
2019-01-18T14:52:48.925Z,54.70
2019-01-18T14:55:17.289Z,59.17
2019-01-18T14:57:46.036Z,49.00
2019-01-18T15:00:30.679Z,48.70
2019-01-18T15:03:02.453Z,54.97
2019-01-18T15:05:29.082Z,52.00
2019-01-18T15:07:57.491Z,50.87
2019-01-18T15:10:26.277Z,56.00
2019-01-18T15:13:00.681Z,58.57
2019-01-18T15:15:29.070Z,66.50
2019-01-18T15:17:57.437Z,57.50
2019-01-18T15:20:27.912Z,57.07
2019-01-18T15:22:56.271Z,49.07
2019-01-18T15:25:24.651Z,54.40
2019-01-18T15:27:53.036Z,55.90
2019-01-18T15:30:30.407Z,54.27
2019-01-18T15:32:58.727Z,66.40
2019-01-18T15:35:32.227Z,55.33
2019-01-18T15:38:00.895Z,51.20
2019-01-18T15:40:32.263Z,46.57
2019-01-18T15:43:01.777Z,52.30
2019-01-18T15:45:30.162Z,59.63
2019-01-18T15:47:58.522Z,56.97
2019-01-18T15:50:29.420Z,46.07
2019-01-18T15:52:57.796Z,56.23
2019-01-18T15:55:26.576Z,47.97
2019-01-18T15:57:54.892Z,50.77
2019-01-18T16:00:28.891Z,52.47
2019-01-18T16:02:57.378Z,54.00
2019-01-18T16:05:25.680Z,52.63
2019-01-18T16:07:53.963Z,62.33
2019-01-18T16:10:22.627Z,64.73
2019-01-18T16:12:50.906Z,60.53
2019-01-18T16:15:25.178Z,63.90
2019-01-18T16:17:53.526Z,64.80
2019-01-18T16:20:23.864Z,62.37
2019-01-18T16:22:52.320Z,63.20
2019-01-18T16:25:26.333Z,62.90
2019-01-18T16:27:54.637Z,55.60
2019-01-18T16:30:24.825Z,61.43
2019-01-18T16:32:55.363Z,59.20
2019-01-18T16:35:23.753Z,62.37
2019-01-18T16:37:52.043Z,59.30
2019-01-18T16:40:23.616Z,62.57
2019-01-18T16:43:01.061Z,83.20
2019-01-18T16:45:29.421Z,74.37
2019-01-18T16:47:57.702Z,79.57
2019-01-18T16:50:26.006Z,76.43
2019-01-18T16:52:54.307Z,81.03
2019-01-18T16:55:22.671Z,96.90
2019-01-18T16:57:50.952Z,87.37
2019-01-18T17:00:28.422Z,92.20
2019-01-18T17:02:56.698Z,96.33
2019-01-18T17:05:25.002Z,108.13
2019-01-18T17:07:53.279Z,90.40
2019-01-18T17:10:21.628Z,111.43
2019-01-18T17:12:50.984Z,101.20
2019-01-18T17:15:19.362Z,93.13
2019-01-18T17:17:47.659Z,106.73
2019-01-18T17:20:21.791Z,102.37
2019-01-18T17:22:50.498Z,120.57
2019-01-18T17:25:19.070Z,117.37
2019-01-18T17:27:47.459Z,106.23
2019-01-18T17:30:20.865Z,107.13
2019-01-18T17:32:49.206Z,104.33
2019-01-18T17:35:23.367Z,100.43
2019-01-18T17:38:03.830Z,105.33
2019-01-18T17:40:35.475Z,102.03
2019-01-18T17:43:10.370Z,105.10
2019-01-18T17:45:44.578Z,103.97
2019-01-18T17:48:16.151Z,101.80
2019-01-18T17:51:08.893Z,97.40
2019-01-18T17:53:39.102Z,97.53
2019-01-18T17:56:13.254Z,88.07
2019-01-18T17:58:53.716Z,93.17
2019-01-18T18:01:40.449Z,86.67
2019-01-18T18:04:20.714Z,75.30
2019-01-18T18:07:09.998Z,80.27
2019-01-18T18:09:44.188Z,80.07
2019-01-18T18:12:27.662Z,82.17
2019-01-18T18:14:59.315Z,73.93
2019-01-18T18:17:33.428Z,79.83
2019-01-18T18:20:38.282Z,72.40
2019-01-18T18:23:15.774Z,68.00
2019-01-18T18:26:04.252Z,71.67
2019-01-18T18:28:57.074Z,67.03
2019-01-18T18:31:31.265Z,79.80
2019-01-18T18:34:18.202Z,72.20
2019-01-18T18:36:49.814Z,70.10
2019-01-18T18:39:23.965Z,82.37
2019-01-18T18:42:14.970Z,68.80
2019-01-18T18:45:03.154Z,70.10
2019-01-18T18:47:46.870Z,59.20
2019-01-18T18:50:41.311Z,72.63
2019-01-18T18:53:12.950Z,68.73
2019-01-18T18:55:55.723Z,65.33
2019-01-18T18:58:29.366Z,66.17
2019-01-18T19:01:19.147Z,82.47
2019-01-18T19:04:05.611Z,90.97
2019-01-18T19:06:52.420Z,76.60
2019-01-18T19:09:32.915Z,69.63
2019-01-18T19:12:16.610Z,70.97
2019-01-18T19:15:03.099Z,82.63
2019-01-18T19:18:03.508Z,66.07
2019-01-18T19:20:44.445Z,69.03
2019-01-18T19:23:30.971Z,69.17
2019-01-18T19:26:19.279Z,79.83
2019-01-18T19:28:53.450Z,79.37
2019-01-18T19:31:30.412Z,79.20
2019-01-18T19:34:20.004Z,65.97
2019-01-18T19:37:09.763Z,64.03
2019-01-18T19:39:50.333Z,77.27
2019-01-18T19:42:24.634Z,73.07
2019-01-18T19:45:02.124Z,66.43
2019-01-18T19:47:36.764Z,68.87
2019-01-18T19:50:23.470Z,73.73
2019-01-18T19:53:12.929Z,72.97
2019-01-18T19:55:56.327Z,77.17
2019-01-18T19:58:49.160Z,72.13
2019-01-18T20:01:42.100Z,58.97
2019-01-18T20:04:34.821Z,70.80
2019-01-18T20:07:31.769Z,68.73
2019-01-18T20:10:12.081Z,71.83
2019-01-18T20:12:46.458Z,77.27
2019-01-18T20:15:39.087Z,78.73
2019-01-18T20:18:16.575Z,68.40
2019-01-18T20:21:00.206Z,70.53
2019-01-18T20:23:34.442Z,69.10
2019-01-18T20:26:11.664Z,63.10
2019-01-18T20:28:55.361Z,71.47
2019-01-18T20:31:32.930Z,65.60
2019-01-18T20:34:10.408Z,65.77
2019-01-18T20:36:50.978Z,73.13
2019-01-18T20:39:37.193Z,69.17
2019-01-18T20:42:18.665Z,66.57
2019-01-18T20:45:11.290Z,67.50
2019-01-18T20:48:03.405Z,68.07
2019-01-18T20:50:43.841Z,70.03
2019-01-18T20:53:35.220Z,72.37
2019-01-18T20:56:09.606Z,72.23
2019-01-18T20:58:56.079Z,60.73
2019-01-18T21:01:39.602Z,68.03
2019-01-18T21:04:33.238Z,65.97
2019-01-18T21:07:17.590Z,80.07
2019-01-18T21:09:49.660Z,74.23
2019-01-18T21:12:27.300Z,63.90
2019-01-18T21:15:02.232Z,72.63
2019-01-18T21:17:33.870Z,74.50
2019-01-18T21:20:21.868Z,86.73
2019-01-18T21:23:02.457Z,70.40
2019-01-18T21:25:49.110Z,63.33
2019-01-18T21:28:29.401Z,67.37
2019-01-18T21:31:03.962Z,60.37
2019-01-18T21:33:50.708Z,74.67
2019-01-18T21:36:40.299Z,61.37
2019-01-18T21:39:24.101Z,77.30
2019-01-18T21:41:55.735Z,77.87
2019-01-18T21:44:49.824Z,80.67
2019-01-18T21:47:21.715Z,106.43
2019-01-18T21:50:08.572Z,90.13
2019-01-18T21:52:59.567Z,90.57
2019-01-18T21:55:43.427Z,90.43
2019-01-18T21:58:33.311Z,86.67
2019-01-18T22:01:20.073Z,87.17
2019-01-18T22:04:08.228Z,74.80
2019-01-18T22:06:45.473Z,89.53
2019-01-18T22:09:17.091Z,82.40
2019-01-18T22:12:08.027Z,102.07
2019-01-18T22:15:05.426Z,86.97
2019-01-18T22:17:37.014Z,84.83
2019-01-18T22:20:17.507Z,93.43
2019-01-18T22:22:51.781Z,86.80
2019-01-18T22:25:26.309Z,87.23
2019-01-18T22:28:09.919Z,88.73
2019-01-18T22:30:50.744Z,93.70
2019-01-18T22:33:27.612Z,88.90
2019-01-18T22:36:04.980Z,83.00
2019-01-18T22:39:07.378Z,81.43
2019-01-18T22:41:44.919Z,83.70
2019-01-18T22:44:19.498Z,86.43
2019-01-18T22:47:05.838Z,79.33
2019-01-18T22:49:42.958Z,69.47
2019-01-18T22:52:20.467Z,73.63
2019-01-18T22:55:09.914Z,70.77
2019-01-18T22:57:58.183Z,69.60
2019-01-18T23:00:55.537Z,72.20
2019-01-18T23:03:52.526Z,67.03
2019-01-18T23:06:43.187Z,72.20
2019-01-18T23:09:29.554Z,60.00
2019-01-18T23:12:17.666Z,73.47
2019-01-18T23:15:08.567Z,77.77
2019-01-18T23:17:43.166Z,67.43
2019-01-18T23:20:21.025Z,70.63
2019-01-18T23:23:14.253Z,61.83
2019-01-18T23:26:03.912Z,68.07
2019-01-18T23:28:59.305Z,64.83
2019-01-18T23:31:39.433Z,70.23
2019-01-18T23:34:13.641Z,65.00
2019-01-18T23:37:01.985Z,67.77
2019-01-18T23:39:45.861Z,64.67
2019-01-18T23:42:20.137Z,67.37
2019-01-18T23:44:57.423Z,66.97
2019-01-18T23:47:55.957Z,62.37
2019-01-18T23:50:39.764Z,64.70
2019-01-18T23:53:12.781Z,61.63
2019-01-18T23:56:05.718Z,60.53
2019-01-18T23:58:46.380Z,63.17
